sensor_id;sensor_type;location;lat;lon;timestamp;P1;P2;P0
72908;PMS5003;61051;62.624;17.950;2024-01-11T00:00:17;0;0;
72908;PMS5003;61051;62.624;17.950;2024-01-11T00:02:45;0;0;
72908;PMS5003;61051;62.624;17.950;2024-01-11T00:05:14;1;1;
72908;PMS5003;61051;62.624;17.950;2024-01-11T00:07:42;3;3;
72908;PMS5003;61051;62.624;17.950;2024-01-11T00:10:10;2;2;
72908;PMS5003;61051;62.624;17.950;2024-01-11T00:12:39;0;0;
72908;PMS5003;61051;62.624;17.950;2024-01-11T00:15:07;0;0;
72908;PMS5003;61051;62.624;17.950;2024-01-11T00:17:35;0;0;
72908;PMS5003;61051;62.624;17.950;2024-01-11T00:20:04;0;0;
72908;PMS5003;61051;62.624;17.950;2024-01-11T00:22:34;0;0;
72908;PMS5003;61051;62.624;17.950;2024-01-11T00:25:02;0;0;
72908;PMS5003;61051;62.624;17.950;2024-01-11T00:27:32;0;0;
72908;PMS5003;61051;62.624;17.950;2024-01-11T00:30:01;0;0;
72908;PMS5003;61051;62.624;17.950;2024-01-11T00:32:29;0;0;
72908;PMS5003;61051;62.624;17.950;2024-01-11T00:34:58;0;0;
72908;PMS5003;61051;62.624;17.950;2024-01-11T00:37:28;0;0;
72908;PMS5003;61051;62.624;17.950;2024-01-11T00:39:57;0;0;
72908;PMS5003;61051;62.624;17.950;2024-01-11T00:42:26;0;0;
72908;PMS5003;61051;62.624;17.950;2024-01-11T00:44:55;0;0;
72908;PMS5003;61051;62.624;17.950;2024-01-11T00:47:23;0;0;
72908;PMS5003;61051;62.624;17.950;2024-01-11T00:49:52;0;0;
72908;PMS5003;61051;62.624;17.950;2024-01-11T00:52:20;0;0;
72908;PMS5003;61051;62.624;17.950;2024-01-11T00:54:48;0;0;
72908;PMS5003;61051;62.624;17.950;2024-01-11T00:57:17;0;0;
72908;PMS5003;61051;62.624;17.950;2024-01-11T00:59:45;0;0;
72908;PMS5003;61051;62.624;17.950;2024-01-11T01:02:13;0;0;
72908;PMS5003;61051;62.624;17.950;2024-01-11T01:04:42;0;0;
72908;PMS5003;61051;62.624;17.950;2024-01-11T01:07:10;0;0;
72908;PMS5003;61051;62.624;17.950;2024-01-11T01:09:39;0;0;
72908;PMS5003;61051;62.624;17.950;2024-01-11T01:12:07;0;0;
72908;PMS5003;61051;62.624;17.950;2024-01-11T01:14:35;0;0;
72908;PMS5003;61051;62.624;17.950;2024-01-11T01:17:04;0;0;
72908;PMS5003;61051;62.624;17.950;2024-01-11T01:19:32;0;0;
72908;PMS5003;61051;62.624;17.950;2024-01-11T01:22:01;0;0;
72908;PMS5003;61051;62.624;17.950;2024-01-11T01:24:30;1;0;
72908;PMS5003;61051;62.624;17.950;2024-01-11T01:26:59;0;0;
72908;PMS5003;61051;62.624;17.950;2024-01-11T01:29:27;0;0;
72908;PMS5003;61051;62.624;17.950;2024-01-11T01:31:56;0;0;
72908;PMS5003;61051;62.624;17.950;2024-01-11T01:34:26;0;0;
72908;PMS5003;61051;62.624;17.950;2024-01-11T01:36:55;0;0;
72908;PMS5003;61051;62.624;17.950;2024-01-11T01:39:23;0;0;
72908;PMS5003;61051;62.624;17.950;2024-01-11T01:41:51;0;0;
72908;PMS5003;61051;62.624;17.950;2024-01-11T01:44:20;0;0;
72908;PMS5003;61051;62.624;17.950;2024-01-11T01:46:48;0;0;
72908;PMS5003;61051;62.624;17.950;2024-01-11T01:49:17;0;0;
72908;PMS5003;61051;62.624;17.950;2024-01-11T01:51:45;0;0;
72908;PMS5003;61051;62.624;17.950;2024-01-11T01:54:13;0;0;
72908;PMS5003;61051;62.624;17.950;2024-01-11T01:56:44;0;0;
72908;PMS5003;61051;62.624;17.950;2024-01-11T01:59:12;0;0;
72908;PMS5003;61051;62.624;17.950;2024-01-11T02:01:42;0;0;
72908;PMS5003;61051;62.624;17.950;2024-01-11T02:04:11;0;0;
72908;PMS5003;61051;62.624;17.950;2024-01-11T02:06:39;0;0;
72908;PMS5003;61051;62.624;17.950;2024-01-11T02:09:09;1;0;
72908;PMS5003;61051;62.624;17.950;2024-01-11T02:11:40;0;0;
72908;PMS5003;61051;62.624;17.950;2024-01-11T02:14:10;0;0;
72908;PMS5003;61051;62.624;17.950;2024-01-11T02:16:38;0;0;
72908;PMS5003;61051;62.624;17.950;2024-01-11T02:19:06;0;0;
72908;PMS5003;61051;62.624;17.950;2024-01-11T02:21:40;0;0;
72908;PMS5003;61051;62.624;17.950;2024-01-11T02:24:10;0;0;
72908;PMS5003;61051;62.624;17.950;2024-01-11T02:26:56;0;0;
72908;PMS5003;61051;62.624;17.950;2024-01-11T02:29:26;0;0;
72908;PMS5003;61051;62.624;17.950;2024-01-11T02:31:55;0;0;
72908;PMS5003;61051;62.624;17.950;2024-01-11T02:34:26;1;1;
72908;PMS5003;61051;62.624;17.950;2024-01-11T02:36:55;0;0;
72908;PMS5003;61051;62.624;17.950;2024-01-11T02:39:25;0;0;
72908;PMS5003;61051;62.624;17.950;2024-01-11T02:41:56;0;0;
72908;PMS5003;61051;62.624;17.950;2024-01-11T02:44:26;0;0;
72908;PMS5003;61051;62.624;17.950;2024-01-11T02:46:54;0;0;
72908;PMS5003;61051;62.624;17.950;2024-01-11T02:49:23;0;0;
72908;PMS5003;61051;62.624;17.950;2024-01-11T02:51:51;1;0;
72908;PMS5003;61051;62.624;17.950;2024-01-11T02:54:20;0;0;
72908;PMS5003;61051;62.624;17.950;2024-01-11T02:56:48;0;0;
72908;PMS5003;61051;62.624;17.950;2024-01-11T02:59:16;0;0;
72908;PMS5003;61051;62.624;17.950;2024-01-11T03:01:45;0;0;
72908;PMS5003;61051;62.624;17.950;2024-01-11T03:04:13;0;0;
72908;PMS5003;61051;62.624;17.950;2024-01-11T03:06:42;0;0;
72908;PMS5003;61051;62.624;17.950;2024-01-11T03:09:10;0;0;
72908;PMS5003;61051;62.624;17.950;2024-01-11T03:11:39;0;0;
72908;PMS5003;61051;62.624;17.950;2024-01-11T03:14:07;0;0;
72908;PMS5003;61051;62.624;17.950;2024-01-11T03:16:35;0;0;
72908;PMS5003;61051;62.624;17.950;2024-01-11T03:19:04;1;0;
72908;PMS5003;61051;62.624;17.950;2024-01-11T03:21:32;0;0;
72908;PMS5003;61051;62.624;17.950;2024-01-11T03:24:01;0;0;
72908;PMS5003;61051;62.624;17.950;2024-01-11T03:26:29;0;0;
72908;PMS5003;61051;62.624;17.950;2024-01-11T03:28:58;0;0;
72908;PMS5003;61051;62.624;17.950;2024-01-11T03:31:26;0;0;
72908;PMS5003;61051;62.624;17.950;2024-01-11T03:33:55;0;0;
72908;PMS5003;61051;62.624;17.950;2024-01-11T03:36:24;0;0;
72908;PMS5003;61051;62.624;17.950;2024-01-11T03:38:52;0;0;
72908;PMS5003;61051;62.624;17.950;2024-01-11T03:41:20;0;0;
72908;PMS5003;61051;62.624;17.950;2024-01-11T03:43:49;0;0;
72908;PMS5003;61051;62.624;17.950;2024-01-11T03:46:19;1;0;
72908;PMS5003;61051;62.624;17.950;2024-01-11T03:48:47;0;0;
72908;PMS5003;61051;62.624;17.950;2024-01-11T03:51:16;0;0;
72908;PMS5003;61051;62.624;17.950;2024-01-11T03:53:44;0;0;
72908;PMS5003;61051;62.624;17.950;2024-01-11T03:56:13;0;0;
72908;PMS5003;61051;62.624;17.950;2024-01-11T03:58:41;0;0;
72908;PMS5003;61051;62.624;17.950;2024-01-11T04:01:09;0;0;
72908;PMS5003;61051;62.624;17.950;2024-01-11T04:03:38;0;0;
72908;PMS5003;61051;62.624;17.950;2024-01-11T04:06:06;0;0;
72908;PMS5003;61051;62.624;17.950;2024-01-11T04:08:35;0;0;
72908;PMS5003;61051;62.624;17.950;2024-01-11T04:11:03;0;0;
72908;PMS5003;61051;62.624;17.950;2024-01-11T04:13:32;0;0;
72908;PMS5003;61051;62.624;17.950;2024-01-11T04:16:03;1;0;
72908;PMS5003;61051;62.624;17.950;2024-01-11T04:18:32;0;0;
72908;PMS5003;61051;62.624;17.950;2024-01-11T04:21:01;0;0;
72908;PMS5003;61051;62.624;17.950;2024-01-11T04:23:29;0;0;
72908;PMS5003;61051;62.624;17.950;2024-01-11T04:25:58;0;0;
72908;PMS5003;61051;62.624;17.950;2024-01-11T04:28:28;0;0;
72908;PMS5003;61051;62.624;17.950;2024-01-11T04:30:57;0;0;
72908;PMS5003;61051;62.624;17.950;2024-01-11T04:33:26;0;0;
72908;PMS5003;61051;62.624;17.950;2024-01-11T04:35:55;0;0;
72908;PMS5003;61051;62.624;17.950;2024-01-11T04:38:23;0;0;
72908;PMS5003;61051;62.624;17.950;2024-01-11T04:40:52;0;0;
72908;PMS5003;61051;62.624;17.950;2024-01-11T04:43:20;0;0;
72908;PMS5003;61051;62.624;17.950;2024-01-11T04:45:49;0;0;
72908;PMS5003;61051;62.624;17.950;2024-01-11T04:48:17;0;0;
72908;PMS5003;61051;62.624;17.950;2024-01-11T04:50:46;0;0;
72908;PMS5003;61051;62.624;17.950;2024-01-11T04:53:14;0;0;
72908;PMS5003;61051;62.624;17.950;2024-01-11T04:55:43;0;0;
72908;PMS5003;61051;62.624;17.950;2024-01-11T04:58:11;0;0;
72908;PMS5003;61051;62.624;17.950;2024-01-11T05:03:36;0;0;
72908;PMS5003;61051;62.624;17.950;2024-01-11T05:06:05;0;0;
72908;PMS5003;61051;62.624;17.950;2024-01-11T05:08:33;0;0;
72908;PMS5003;61051;62.624;17.950;2024-01-11T05:11:01;0;0;
72908;PMS5003;61051;62.624;17.950;2024-01-11T05:13:30;0;0;
72908;PMS5003;61051;62.624;17.950;2024-01-11T05:15:58;0;0;
72908;PMS5003;61051;62.624;17.950;2024-01-11T05:18:27;0;0;
72908;PMS5003;61051;62.624;17.950;2024-01-11T05:20:55;0;0;
72908;PMS5003;61051;62.624;17.950;2024-01-11T05:23:24;0;0;
72908;PMS5003;61051;62.624;17.950;2024-01-11T05:25:52;0;0;
72908;PMS5003;61051;62.624;17.950;2024-01-11T05:28:21;0;0;
72908;PMS5003;61051;62.624;17.950;2024-01-11T05:30:49;1;1;
72908;PMS5003;61051;62.624;17.950;2024-01-11T05:33:23;1;1;
72908;PMS5003;61051;62.624;17.950;2024-01-11T05:35:51;0;0;
72908;PMS5003;61051;62.624;17.950;2024-01-11T05:38:20;1;0;
72908;PMS5003;61051;62.624;17.950;2024-01-11T05:40:49;0;0;
72908;PMS5003;61051;62.624;17.950;2024-01-11T05:43:17;0;0;
72908;PMS5003;61051;62.624;17.950;2024-01-11T05:45:45;0;0;
72908;PMS5003;61051;62.624;17.950;2024-01-11T05:48:14;0;0;
72908;PMS5003;61051;62.624;17.950;2024-01-11T05:50:44;0;0;
72908;PMS5003;61051;62.624;17.950;2024-01-11T05:53:15;0;0;
72908;PMS5003;61051;62.624;17.950;2024-01-11T05:55:43;1;1;
72908;PMS5003;61051;62.624;17.950;2024-01-11T05:58:12;2;0;
72908;PMS5003;61051;62.624;17.950;2024-01-11T06:00:42;0;0;
72908;PMS5003;61051;62.624;17.950;2024-01-11T06:03:11;0;0;
72908;PMS5003;61051;62.624;17.950;2024-01-11T06:05:41;0;0;
72908;PMS5003;61051;62.624;17.950;2024-01-11T06:08:09;0;0;
72908;PMS5003;61051;62.624;17.950;2024-01-11T06:10:38;0;0;
72908;PMS5003;61051;62.624;17.950;2024-01-11T06:13:08;0;0;
72908;PMS5003;61051;62.624;17.950;2024-01-11T06:15:37;1;0;
72908;PMS5003;61051;62.624;17.950;2024-01-11T06:18:05;0;0;
72908;PMS5003;61051;62.624;17.950;2024-01-11T06:20:33;0;0;
72908;PMS5003;61051;62.624;17.950;2024-01-11T06:23:02;0;0;
72908;PMS5003;61051;62.624;17.950;2024-01-11T06:25:31;0;0;
72908;PMS5003;61051;62.624;17.950;2024-01-11T06:27:59;0;0;
72908;PMS5003;61051;62.624;17.950;2024-01-11T06:30:27;1;0;
72908;PMS5003;61051;62.624;17.950;2024-01-11T06:32:56;0;0;
72908;PMS5003;61051;62.624;17.950;2024-01-11T06:35:25;0;0;
72908;PMS5003;61051;62.624;17.950;2024-01-11T06:37:53;0;0;
72908;PMS5003;61051;62.624;17.950;2024-01-11T06:40:21;0;0;
72908;PMS5003;61051;62.624;17.950;2024-01-11T06:42:50;1;1;
72908;PMS5003;61051;62.624;17.950;2024-01-11T06:45:19;2;0;
72908;PMS5003;61051;62.624;17.950;2024-01-11T06:47:47;0;0;
72908;PMS5003;61051;62.624;17.950;2024-01-11T06:50:16;0;0;
72908;PMS5003;61051;62.624;17.950;2024-01-11T06:52:44;0;0;
72908;PMS5003;61051;62.624;17.950;2024-01-11T06:55:13;0;0;
72908;PMS5003;61051;62.624;17.950;2024-01-11T06:57:46;0;0;
72908;PMS5003;61051;62.624;17.950;2024-01-11T07:00:15;0;0;
72908;PMS5003;61051;62.624;17.950;2024-01-11T07:02:43;0;0;
72908;PMS5003;61051;62.624;17.950;2024-01-11T07:05:12;0;0;
72908;PMS5003;61051;62.624;17.950;2024-01-11T07:07:42;0;0;
72908;PMS5003;61051;62.624;17.950;2024-01-11T07:10:10;0;0;
72908;PMS5003;61051;62.624;17.950;2024-01-11T07:12:39;0;0;
72908;PMS5003;61051;62.624;17.950;2024-01-11T07:15:08;0;0;
72908;PMS5003;61051;62.624;17.950;2024-01-11T07:17:38;0;0;
72908;PMS5003;61051;62.624;17.950;2024-01-11T07:20:07;0;0;
72908;PMS5003;61051;62.624;17.950;2024-01-11T07:22:36;1;1;
72908;PMS5003;61051;62.624;17.950;2024-01-11T07:25:05;1;1;
72908;PMS5003;61051;62.624;17.950;2024-01-11T07:27:33;6;5;
72908;PMS5003;61051;62.624;17.950;2024-01-11T07:30:02;2;1;
72908;PMS5003;61051;62.624;17.950;2024-01-11T07:32:31;0;0;
72908;PMS5003;61051;62.624;17.950;2024-01-11T07:35:00;5;1;
72908;PMS5003;61051;62.624;17.950;2024-01-11T07:37:28;0;0;
72908;PMS5003;61051;62.624;17.950;2024-01-11T07:39:57;1;0;
72908;PMS5003;61051;62.624;17.950;2024-01-11T07:42:25;2;0;
72908;PMS5003;61051;62.624;17.950;2024-01-11T07:44:54;0;0;
72908;PMS5003;61051;62.624;17.950;2024-01-11T07:47:22;0;0;
72908;PMS5003;61051;62.624;17.950;2024-01-11T07:49:51;2;2;
72908;PMS5003;61051;62.624;17.950;2024-01-11T07:52:20;1;1;
72908;PMS5003;61051;62.624;17.950;2024-01-11T07:54:48;1;1;
72908;PMS5003;61051;62.624;17.950;2024-01-11T07:57:17;1;0;
72908;PMS5003;61051;62.624;17.950;2024-01-11T07:59:45;2;1;
72908;PMS5003;61051;62.624;17.950;2024-01-11T08:02:14;0;0;
72908;PMS5003;61051;62.624;17.950;2024-01-11T08:04:42;1;0;
72908;PMS5003;61051;62.624;17.950;2024-01-11T08:07:11;0;0;
72908;PMS5003;61051;62.624;17.950;2024-01-11T08:09:41;2;0;
72908;PMS5003;61051;62.624;17.950;2024-01-11T08:12:10;0;0;
72908;PMS5003;61051;62.624;17.950;2024-01-11T08:14:38;0;0;
72908;PMS5003;61051;62.624;17.950;2024-01-11T08:17:07;0;0;
72908;PMS5003;61051;62.624;17.950;2024-01-11T08:19:36;0;0;
72908;PMS5003;61051;62.624;17.950;2024-01-11T08:22:04;1;0;
72908;PMS5003;61051;62.624;17.950;2024-01-11T08:24:33;1;1;
72908;PMS5003;61051;62.624;17.950;2024-01-11T08:27:03;0;0;
72908;PMS5003;61051;62.624;17.950;2024-01-11T08:29:32;1;0;
72908;PMS5003;61051;62.624;17.950;2024-01-11T08:32:01;1;1;
72908;PMS5003;61051;62.624;17.950;2024-01-11T08:34:30;2;0;
72908;PMS5003;61051;62.624;17.950;2024-01-11T08:37:00;1;1;
72908;PMS5003;61051;62.624;17.950;2024-01-11T08:39:29;3;0;
72908;PMS5003;61051;62.624;17.950;2024-01-11T08:41:57;0;0;
72908;PMS5003;61051;62.624;17.950;2024-01-11T08:44:27;5;0;
72908;PMS5003;61051;62.624;17.950;2024-01-11T08:46:55;0;0;
72908;PMS5003;61051;62.624;17.950;2024-01-11T08:49:24;2;1;
72908;PMS5003;61051;62.624;17.950;2024-01-11T08:51:53;0;0;
72908;PMS5003;61051;62.624;17.950;2024-01-11T08:54:21;1;1;
72908;PMS5003;61051;62.624;17.950;2024-01-11T08:56:50;3;3;
72908;PMS5003;61051;62.624;17.950;2024-01-11T08:59:19;4;2;
72908;PMS5003;61051;62.624;17.950;2024-01-11T09:01:47;2;1;
72908;PMS5003;61051;62.624;17.950;2024-01-11T09:04:16;1;1;
72908;PMS5003;61051;62.624;17.950;2024-01-11T09:06:44;1;1;
72908;PMS5003;61051;62.624;17.950;2024-01-11T09:09:14;0;0;
72908;PMS5003;61051;62.624;17.950;2024-01-11T09:11:43;2;1;
72908;PMS5003;61051;62.624;17.950;2024-01-11T09:14:13;7;3;
72908;PMS5003;61051;62.624;17.950;2024-01-11T09:16:43;2;2;
72908;PMS5003;61051;62.624;17.950;2024-01-11T09:19:12;0;0;
72908;PMS5003;61051;62.624;17.950;2024-01-11T09:21:42;2;0;
72908;PMS5003;61051;62.624;17.950;2024-01-11T09:24:10;1;0;
72908;PMS5003;61051;62.624;17.950;2024-01-11T09:26:39;2;1;
72908;PMS5003;61051;62.624;17.950;2024-01-11T09:29:08;0;0;
72908;PMS5003;61051;62.624;17.950;2024-01-11T09:31:36;3;1;
72908;PMS5003;61051;62.624;17.950;2024-01-11T09:34:05;0;0;
72908;PMS5003;61051;62.624;17.950;2024-01-11T09:36:34;0;0;
72908;PMS5003;61051;62.624;17.950;2024-01-11T09:39:02;1;0;
72908;PMS5003;61051;62.624;17.950;2024-01-11T09:41:31;2;1;
72908;PMS5003;61051;62.624;17.950;2024-01-11T09:44:01;0;0;
72908;PMS5003;61051;62.624;17.950;2024-01-11T09:46:33;1;1;
72908;PMS5003;61051;62.624;17.950;2024-01-11T09:49:02;4;1;
72908;PMS5003;61051;62.624;17.950;2024-01-11T09:51:32;0;0;
72908;PMS5003;61051;62.624;17.950;2024-01-11T09:54:06;1;1;
72908;PMS5003;61051;62.624;17.950;2024-01-11T09:56:37;0;0;
72908;PMS5003;61051;62.624;17.950;2024-01-11T09:59:05;0;0;
72908;PMS5003;61051;62.624;17.950;2024-01-11T10:01:36;0;0;
72908;PMS5003;61051;62.624;17.950;2024-01-11T10:04:06;0;0;
72908;PMS5003;61051;62.624;17.950;2024-01-11T10:06:35;0;0;
72908;PMS5003;61051;62.624;17.950;2024-01-11T10:09:07;2;2;
72908;PMS5003;61051;62.624;17.950;2024-01-11T10:11:36;0;0;
72908;PMS5003;61051;62.624;17.950;2024-01-11T10:14:06;0;0;
72908;PMS5003;61051;62.624;17.950;2024-01-11T10:16:34;2;1;
72908;PMS5003;61051;62.624;17.950;2024-01-11T10:19:03;2;0;
72908;PMS5003;61051;62.624;17.950;2024-01-11T10:21:32;0;0;
72908;PMS5003;61051;62.624;17.950;2024-01-11T10:24:00;1;0;
72908;PMS5003;61051;62.624;17.950;2024-01-11T10:26:29;1;1;
72908;PMS5003;61051;62.624;17.950;2024-01-11T10:28:58;0;0;
72908;PMS5003;61051;62.624;17.950;2024-01-11T10:31:28;1;0;
72908;PMS5003;61051;62.624;17.950;2024-01-11T10:33:57;0;0;
72908;PMS5003;61051;62.624;17.950;2024-01-11T10:36:25;0;0;
72908;PMS5003;61051;62.624;17.950;2024-01-11T10:38:54;1;0;
72908;PMS5003;61051;62.624;17.950;2024-01-11T10:41:22;0;0;
72908;PMS5003;61051;62.624;17.950;2024-01-11T10:43:51;0;0;
72908;PMS5003;61051;62.624;17.950;2024-01-11T10:46:21;0;0;
72908;PMS5003;61051;62.624;17.950;2024-01-11T10:48:55;0;0;
72908;PMS5003;61051;62.624;17.950;2024-01-11T10:51:28;0;0;
72908;PMS5003;61051;62.624;17.950;2024-01-11T10:54:00;0;0;
72908;PMS5003;61051;62.624;17.950;2024-01-11T10:56:28;4;0;
72908;PMS5003;61051;62.624;17.950;2024-01-11T10:58:59;3;1;
72908;PMS5003;61051;62.624;17.950;2024-01-11T11:03:17;0;0;
72908;PMS5003;61051;62.624;17.950;2024-01-11T11:05:47;0;0;
72908;PMS5003;61051;62.624;17.950;2024-01-11T11:08:17;1;0;
72908;PMS5003;61051;62.624;17.950;2024-01-11T11:10:48;0;0;
72908;PMS5003;61051;62.624;17.950;2024-01-11T11:13:18;0;0;
72908;PMS5003;61051;62.624;17.950;2024-01-11T11:15:47;0;0;
72908;PMS5003;61051;62.624;17.950;2024-01-11T11:18:15;0;0;
72908;PMS5003;61051;62.624;17.950;2024-01-11T11:20:46;0;0;
72908;PMS5003;61051;62.624;17.950;2024-01-11T11:23:16;2;0;
72908;PMS5003;61051;62.624;17.950;2024-01-11T11:25:47;2;1;
72908;PMS5003;61051;62.624;17.950;2024-01-11T11:28:17;1;1;
72908;PMS5003;61051;62.624;17.950;2024-01-11T11:30:47;2;1;
72908;PMS5003;61051;62.624;17.950;2024-01-11T11:33:18;0;0;
72908;PMS5003;61051;62.624;17.950;2024-01-11T11:35:48;1;1;
72908;PMS5003;61051;62.624;17.950;2024-01-11T11:38:20;2;1;
72908;PMS5003;61051;62.624;17.950;2024-01-11T11:40:51;1;1;
72908;PMS5003;61051;62.624;17.950;2024-01-11T11:43:21;1;0;
72908;PMS5003;61051;62.624;17.950;2024-01-11T11:45:49;0;0;
72908;PMS5003;61051;62.624;17.950;2024-01-11T11:48:52;0;0;
72908;PMS5003;61051;62.624;17.950;2024-01-11T11:51:20;3;1;
72908;PMS5003;61051;62.624;17.950;2024-01-11T11:53:49;1;0;
72908;PMS5003;61051;62.624;17.950;2024-01-11T11:56:19;1;1;
72908;PMS5003;61051;62.624;17.950;2024-01-11T11:58:49;2;2;
72908;PMS5003;61051;62.624;17.950;2024-01-11T12:01:18;2;2;
72908;PMS5003;61051;62.624;17.950;2024-01-11T12:03:47;2;0;
72908;PMS5003;61051;62.624;17.950;2024-01-11T12:06:16;0;0;
72908;PMS5003;61051;62.624;17.950;2024-01-11T12:08:46;1;1;
72908;PMS5003;61051;62.624;17.950;2024-01-11T12:11:17;3;1;
72908;PMS5003;61051;62.624;17.950;2024-01-11T12:13:47;0;0;
72908;PMS5003;61051;62.624;17.950;2024-01-11T12:16:17;0;0;
72908;PMS5003;61051;62.624;17.950;2024-01-11T12:18:45;2;0;
72908;PMS5003;61051;62.624;17.950;2024-01-11T12:21:14;2;2;
72908;PMS5003;61051;62.624;17.950;2024-01-11T12:23:43;1;1;
72908;PMS5003;61051;62.624;17.950;2024-01-11T12:26:11;2;2;
72908;PMS5003;61051;62.624;17.950;2024-01-11T12:28:40;1;1;
72908;PMS5003;61051;62.624;17.950;2024-01-11T12:31:09;0;0;
72908;PMS5003;61051;62.624;17.950;2024-01-11T12:33:37;2;0;
72908;PMS5003;61051;62.624;17.950;2024-01-11T12:36:06;1;0;
72908;PMS5003;61051;62.624;17.950;2024-01-11T12:38:34;0;0;
72908;PMS5003;61051;62.624;17.950;2024-01-11T12:41:03;1;1;
72908;PMS5003;61051;62.624;17.950;2024-01-11T12:43:32;0;0;
72908;PMS5003;61051;62.624;17.950;2024-01-11T12:46:01;0;0;
72908;PMS5003;61051;62.624;17.950;2024-01-11T12:48:29;1;1;
72908;PMS5003;61051;62.624;17.950;2024-01-11T12:50:58;2;0;
72908;PMS5003;61051;62.624;17.950;2024-01-11T12:53:27;5;1;
72908;PMS5003;61051;62.624;17.950;2024-01-11T12:56:04;0;0;
72908;PMS5003;61051;62.624;17.950;2024-01-11T12:58:33;1;1;
72908;PMS5003;61051;62.624;17.950;2024-01-11T13:01:02;0;0;
72908;PMS5003;61051;62.624;17.950;2024-01-11T13:03:30;2;0;
72908;PMS5003;61051;62.624;17.950;2024-01-11T13:05:59;0;0;
72908;PMS5003;61051;62.624;17.950;2024-01-11T13:08:27;1;0;
72908;PMS5003;61051;62.624;17.950;2024-01-11T13:10:57;0;0;
72908;PMS5003;61051;62.624;17.950;2024-01-11T13:13:26;1;1;
72908;PMS5003;61051;62.624;17.950;2024-01-11T13:15:55;0;0;
72908;PMS5003;61051;62.624;17.950;2024-01-11T13:18:25;0;0;
72908;PMS5003;61051;62.624;17.950;2024-01-11T13:20:54;1;0;
72908;PMS5003;61051;62.624;17.950;2024-01-11T13:23:28;0;0;
72908;PMS5003;61051;62.624;17.950;2024-01-11T13:25:57;1;1;
72908;PMS5003;61051;62.624;17.950;2024-01-11T13:28:25;3;1;
72908;PMS5003;61051;62.624;17.950;2024-01-11T13:30:54;4;2;
72908;PMS5003;61051;62.624;17.950;2024-01-11T13:33:23;3;1;
72908;PMS5003;61051;62.624;17.950;2024-01-11T13:35:51;0;0;
72908;PMS5003;61051;62.624;17.950;2024-01-11T13:38:20;1;1;
72908;PMS5003;61051;62.624;17.950;2024-01-11T13:40:48;3;2;
72908;PMS5003;61051;62.624;17.950;2024-01-11T13:43:17;2;2;
72908;PMS5003;61051;62.624;17.950;2024-01-11T13:45:46;3;2;
72908;PMS5003;61051;62.624;17.950;2024-01-11T13:48:14;1;1;
72908;PMS5003;61051;62.624;17.950;2024-01-11T13:50:43;2;1;
72908;PMS5003;61051;62.624;17.950;2024-01-11T13:53:12;7;2;
72908;PMS5003;61051;62.624;17.950;2024-01-11T13:55:40;1;1;
72908;PMS5003;61051;62.624;17.950;2024-01-11T13:58:09;0;0;
72908;PMS5003;61051;62.624;17.950;2024-01-11T14:00:38;3;1;
72908;PMS5003;61051;62.624;17.950;2024-01-11T14:03:06;0;0;
72908;PMS5003;61051;62.624;17.950;2024-01-11T14:05:35;1;1;
72908;PMS5003;61051;62.624;17.950;2024-01-11T14:08:04;6;2;
72908;PMS5003;61051;62.624;17.950;2024-01-11T14:10:33;6;2;
72908;PMS5003;61051;62.624;17.950;2024-01-11T14:13:01;6;2;
72908;PMS5003;61051;62.624;17.950;2024-01-11T14:15:30;1;1;
72908;PMS5003;61051;62.624;17.950;2024-01-11T14:17:59;3;2;
72908;PMS5003;61051;62.624;17.950;2024-01-11T14:20:27;10;4;
72908;PMS5003;61051;62.624;17.950;2024-01-11T14:22:57;14;8;
72908;PMS5003;61051;62.624;17.950;2024-01-11T14:25:26;6;6;
72908;PMS5003;61051;62.624;17.950;2024-01-11T14:27:55;7;3;
72908;PMS5003;61051;62.624;17.950;2024-01-11T14:30:25;7;3;
72908;PMS5003;61051;62.624;17.950;2024-01-11T14:32:55;8;1;
72908;PMS5003;61051;62.624;17.950;2024-01-11T14:35:25;2;1;
72908;PMS5003;61051;62.624;17.950;2024-01-11T14:37:54;0;0;
72908;PMS5003;61051;62.624;17.950;2024-01-11T14:40:22;0;0;
72908;PMS5003;61051;62.624;17.950;2024-01-11T14:42:51;0;0;
72908;PMS5003;61051;62.624;17.950;2024-01-11T14:45:20;0;0;
72908;PMS5003;61051;62.624;17.950;2024-01-11T14:47:48;0;0;
72908;PMS5003;61051;62.624;17.950;2024-01-11T14:50:17;2;0;
72908;PMS5003;61051;62.624;17.950;2024-01-11T14:52:45;0;0;
72908;PMS5003;61051;62.624;17.950;2024-01-11T14:55:14;1;0;
72908;PMS5003;61051;62.624;17.950;2024-01-11T14:57:43;0;0;
72908;PMS5003;61051;62.624;17.950;2024-01-11T15:00:12;0;0;
72908;PMS5003;61051;62.624;17.950;2024-01-11T15:02:42;2;2;
72908;PMS5003;61051;62.624;17.950;2024-01-11T15:05:10;1;1;
72908;PMS5003;61051;62.624;17.950;2024-01-11T15:07:39;2;0;
72908;PMS5003;61051;62.624;17.950;2024-01-11T15:10:08;0;0;
72908;PMS5003;61051;62.624;17.950;2024-01-11T15:12:36;0;0;
72908;PMS5003;61051;62.624;17.950;2024-01-11T15:15:05;1;1;
72908;PMS5003;61051;62.624;17.950;2024-01-11T15:17:35;0;0;
72908;PMS5003;61051;62.624;17.950;2024-01-11T15:20:04;0;0;
72908;PMS5003;61051;62.624;17.950;2024-01-11T15:22:34;0;0;
72908;PMS5003;61051;62.624;17.950;2024-01-11T15:25:03;0;0;
72908;PMS5003;61051;62.624;17.950;2024-01-11T15:27:31;0;0;
72908;PMS5003;61051;62.624;17.950;2024-01-11T15:30:00;0;0;
72908;PMS5003;61051;62.624;17.950;2024-01-11T15:32:28;0;0;
72908;PMS5003;61051;62.624;17.950;2024-01-11T15:34:57;0;0;
72908;PMS5003;61051;62.624;17.950;2024-01-11T15:37:26;0;0;
72908;PMS5003;61051;62.624;17.950;2024-01-11T15:39:55;0;0;
72908;PMS5003;61051;62.624;17.950;2024-01-11T15:42:25;1;1;
72908;PMS5003;61051;62.624;17.950;2024-01-11T15:44:54;0;0;
72908;PMS5003;61051;62.624;17.950;2024-01-11T15:47:22;0;0;
72908;PMS5003;61051;62.624;17.950;2024-01-11T15:49:51;0;0;
72908;PMS5003;61051;62.624;17.950;2024-01-11T15:52:19;0;0;
72908;PMS5003;61051;62.624;17.950;2024-01-11T15:54:48;0;0;
72908;PMS5003;61051;62.624;17.950;2024-01-11T15:57:17;0;0;
72908;PMS5003;61051;62.624;17.950;2024-01-11T15:59:45;0;0;
72908;PMS5003;61051;62.624;17.950;2024-01-11T16:02:14;0;0;
72908;PMS5003;61051;62.624;17.950;2024-01-11T16:04:43;0;0;
72908;PMS5003;61051;62.624;17.950;2024-01-11T16:07:12;2;1;
72908;PMS5003;61051;62.624;17.950;2024-01-11T16:09:41;1;1;
72908;PMS5003;61051;62.624;17.950;2024-01-11T16:12:09;1;1;
72908;PMS5003;61051;62.624;17.950;2024-01-11T16:14:38;1;1;
72908;PMS5003;61051;62.624;17.950;2024-01-11T16:17:12;5;1;
72908;PMS5003;61051;62.624;17.950;2024-01-11T16:19:41;5;4;
72908;PMS5003;61051;62.624;17.950;2024-01-11T16:22:09;4;4;
72908;PMS5003;61051;62.624;17.950;2024-01-11T16:24:38;3;3;
72908;PMS5003;61051;62.624;17.950;2024-01-11T16:27:06;3;3;
72908;PMS5003;61051;62.624;17.950;2024-01-11T16:29:35;1;1;
72908;PMS5003;61051;62.624;17.950;2024-01-11T16:32:04;1;1;
72908;PMS5003;61051;62.624;17.950;2024-01-11T16:34:32;3;3;
72908;PMS5003;61051;62.624;17.950;2024-01-11T16:37:01;2;2;
72908;PMS5003;61051;62.624;17.950;2024-01-11T16:39:29;4;3;
72908;PMS5003;61051;62.624;17.950;2024-01-11T16:41:58;2;2;
72908;PMS5003;61051;62.624;17.950;2024-01-11T16:44:27;5;3;
72908;PMS5003;61051;62.624;17.950;2024-01-11T16:46:56;2;2;
72908;PMS5003;61051;62.624;17.950;2024-01-11T16:49:26;3;1;